createdAt,value
2022-09-18T00:00:40.459Z,93661.15
2022-09-18T00:03:06.865Z,93653.88
2022-09-18T00:05:33.143Z,93656.46
2022-09-18T00:07:59.490Z,93656.97
2022-09-18T00:10:25.832Z,93657.45
2022-09-18T00:12:52.177Z,93673.24
2022-09-18T00:15:18.518Z,93678.92
2022-09-18T00:17:44.869Z,93678.92
2022-09-18T00:20:11.211Z,93690.36
2022-09-18T00:22:37.555Z,93701.02
2022-09-18T00:25:03.892Z,93719.09
2022-09-18T00:27:30.262Z,93721.67
2022-09-18T00:29:56.601Z,93738.59
2022-09-18T00:32:22.950Z,93744.91
2022-09-18T00:34:49.294Z,93769.44
2022-09-18T00:37:15.650Z,93783.16
2022-09-18T00:39:41.996Z,93785.73
2022-09-18T00:42:08.342Z,93801.70
2022-09-18T00:44:34.682Z,93797.84
2022-09-18T00:47:01.021Z,93796.06
2022-09-18T00:49:27.367Z,93793.48
2022-09-18T00:51:53.712Z,93817.67
2022-09-18T00:54:20.062Z,93829.13
2022-09-18T00:56:46.398Z,93837.86
2022-09-18T00:59:12.747Z,93854.94
2022-09-18T01:01:39.128Z,93877.70
2022-09-18T01:04:05.434Z,93879.16
2022-09-18T01:06:31.784Z,93874.48
2022-09-18T01:08:58.127Z,93883.17
2022-09-18T01:11:24.479Z,93900.77
2022-09-18T01:13:50.818Z,93910.29
2022-09-18T01:16:17.270Z,93916.27
2022-09-18T01:18:43.552Z,93925.78
2022-09-18T01:21:09.900Z,93937.26
2022-09-18T01:23:36.238Z,93931.76
2022-09-18T01:26:02.583Z,93930.12
2022-09-18T01:28:28.926Z,93943.55
2022-09-18T01:30:55.356Z,93942.25
2022-09-18T01:33:21.623Z,93955.95
2022-09-18T01:35:47.964Z,93969.67
2022-09-18T01:38:14.299Z,93954.02
2022-09-18T01:40:40.721Z,93962.09
2022-09-18T01:43:06.991Z,93958.70
2022-09-18T01:45:33.378Z,93963.05
2022-09-18T01:47:59.718Z,93963.05
2022-09-18T01:50:26.052Z,93991.62
2022-09-18T01:52:52.392Z,94009.05
2022-09-18T01:55:18.739Z,94016.31
2022-09-18T01:57:45.070Z,94026.64
2022-09-18T02:00:11.414Z,94030.52
2022-09-18T02:02:37.851Z,94032.42
2022-09-18T02:05:04.143Z,94031.77
2022-09-18T02:07:30.479Z,94035.00
2022-09-18T02:09:56.827Z,94040.16
2022-09-18T02:12:23.163Z,94032.42
2022-09-18T02:14:49.497Z,94058.09
2022-09-18T02:17:15.835Z,94058.58
2022-09-18T02:19:42.178Z,94065.03
2022-09-18T02:22:08.518Z,94091.19
2022-09-18T02:24:34.875Z,94109.27
2022-09-18T02:27:01.203Z,94094.69
2022-09-18T02:29:27.549Z,94101.48
2022-09-18T02:31:53.945Z,94107.94
2022-09-18T02:34:20.230Z,94117.61
2022-09-18T02:36:46.572Z,94126.95
2022-09-18T02:39:12.927Z,94153.59
2022-09-18T02:41:39.265Z,94153.75
2022-09-18T02:44:05.607Z,94170.03
2022-09-18T02:46:32.001Z,94159.53
2022-09-18T02:48:58.295Z,94164.22
2022-09-18T02:51:24.681Z,94168.56
2022-09-18T02:53:51.028Z,94169.38
2022-09-18T02:56:17.359Z,94169.55
2022-09-18T02:58:43.711Z,94187.61
2022-09-18T03:01:10.101Z,94181.63
2022-09-18T03:03:36.386Z,94181.63
2022-09-18T03:06:02.733Z,94189.04
2022-09-18T03:08:29.082Z,94210.64
2022-09-18T03:10:55.430Z,94214.38
2022-09-18T03:13:21.780Z,94217.56
2022-09-18T03:15:48.151Z,94210.46
2022-09-18T03:18:14.488Z,94206.59
2022-09-18T03:20:40.833Z,94209.17
2022-09-18T03:23:07.198Z,94225.95
2022-09-18T03:25:34.300Z,94222.08
2022-09-18T03:28:00.673Z,94226.42
2022-09-18T03:30:26.997Z,94227.72
2022-09-18T03:32:53.334Z,94227.06
2022-09-18T03:35:19.674Z,94217.68
2022-09-18T03:37:46.015Z,94225.42
2022-09-18T03:40:12.389Z,94222.37
2022-09-18T03:42:38.695Z,94237.38
2022-09-18T03:45:05.047Z,94238.33
2022-09-18T03:47:35.668Z,94238.80
2022-09-18T03:49:57.738Z,94241.39
2022-09-18T03:52:24.076Z,94236.86
2022-09-18T03:54:50.422Z,94246.71
2022-09-18T03:57:16.776Z,94260.09
2022-09-18T03:59:43.106Z,94263.97
2022-09-18T04:02:09.499Z,94285.25
2022-09-18T04:04:35.807Z,94291.59
2022-09-18T04:07:02.163Z,94306.69
2022-09-18T04:09:28.505Z,94309.90
2022-09-18T04:11:54.850Z,94305.20
2022-09-18T04:14:21.219Z,94301.81
2022-09-18T04:16:47.574Z,94311.95
2022-09-18T04:19:13.901Z,94307.27
2022-09-18T04:21:40.272Z,94320.52
2022-09-18T04:24:06.611Z,94330.70
2022-09-18T04:26:33.001Z,94352.77
2022-09-18T04:28:59.338Z,94358.88
2022-09-18T04:31:25.743Z,94360.17
2022-09-18T04:33:52.026Z,94363.57
2022-09-18T04:36:18.375Z,94373.55
2022-09-18T04:38:44.721Z,94371.47
2022-09-18T04:41:11.064Z,94376.29
2022-09-18T04:43:37.413Z,94384.50
2022-09-18T04:46:03.757Z,94390.02
2022-09-18T04:48:30.163Z,94382.84
2022-09-18T04:50:56.524Z,94395.30
2022-09-18T04:53:22.876Z,94402.57
2022-09-18T04:55:49.226Z,94403.27
2022-09-18T04:58:15.561Z,94422.40
2022-09-18T05:00:41.964Z,94424.16
2022-09-18T05:03:08.244Z,94432.06
2022-09-18T05:05:34.589Z,94445.63
2022-09-18T05:08:00.939Z,94438.05
2022-09-18T05:10:27.297Z,94456.11
2022-09-18T05:12:53.637Z,94463.38
2022-09-18T05:15:19.987Z,94461.27
2022-09-18T05:17:46.320Z,94460.58
2022-09-18T05:20:12.663Z,94465.27
2022-09-18T05:22:39.012Z,94476.06
2022-09-18T05:25:05.362Z,94483.33
2022-09-18T05:27:31.708Z,94498.00
2022-09-18T05:29:58.052Z,94505.89
2022-09-18T05:32:24.384Z,94504.13
2022-09-18T05:34:50.723Z,94508.48
2022-09-18T05:37:17.107Z,94500.86
2022-09-18T05:39:43.448Z,94500.04
2022-09-18T05:42:09.800Z,94501.33
2022-09-18T05:44:36.133Z,94506.48
2022-09-18T05:47:02.530Z,94507.78
2022-09-18T05:49:28.823Z,94511.34
2022-09-18T05:51:55.164Z,94515.67
2022-09-18T05:54:21.513Z,94528.93
2022-09-18T05:56:47.881Z,94525.53
2022-09-18T05:59:14.241Z,94522.59
2022-09-18T06:01:43.674Z,94527.29
2022-09-18T06:04:06.939Z,94531.62
2022-09-18T06:06:33.283Z,94526.13
2022-09-18T06:08:59.738Z,94518.38
2022-09-18T06:11:25.998Z,94532.58
2022-09-18T06:13:52.368Z,94521.78
2022-09-18T06:16:18.752Z,94524.05
2022-09-18T06:18:45.096Z,94533.86
2022-09-18T06:21:11.445Z,94533.08
2022-09-18T06:23:37.820Z,94538.23
2022-09-18T06:26:04.169Z,94546.45
2022-09-18T06:28:30.504Z,94551.92
2022-09-18T06:30:56.866Z,94552.55
2022-09-18T06:33:23.186Z,94557.59
2022-09-18T06:35:49.531Z,94565.80
2022-09-18T06:38:15.911Z,94562.75
2022-09-18T06:40:42.315Z,94576.80
2022-09-18T06:43:08.605Z,94587.59
2022-09-18T06:45:34.979Z,94585.62
2022-09-18T06:48:01.303Z,94582.11
2022-09-18T06:50:27.648Z,94582.58
2022-09-18T06:52:53.994Z,94596.30
2022-09-18T06:55:20.342Z,94590.32
2022-09-18T06:57:46.676Z,94587.86
2022-09-18T07:00:13.088Z,94601.11
2022-09-18T07:02:39.513Z,94606.74
2022-09-18T07:05:05.805Z,94604.05
2022-09-18T07:07:32.150Z,94612.25
2022-09-18T07:09:58.489Z,94609.33
2022-09-18T07:12:24.845Z,94613.08
2022-09-18T07:14:51.192Z,94612.58
2022-09-18T07:17:19.234Z,94615.97
2022-09-18T07:19:43.876Z,94611.63
2022-09-18T07:22:10.218Z,94610.34
2022-09-18T07:24:36.565Z,94615.03
2022-09-18T07:27:02.892Z,94615.50
2022-09-18T07:29:29.248Z,94613.74
2022-09-18T07:31:55.595Z,94615.42
2022-09-18T07:34:21.940Z,94607.64
2022-09-18T07:36:48.271Z,94607.64
2022-09-18T07:39:14.625Z,94609.72
2022-09-18T07:41:40.973Z,94608.43
2022-09-18T07:44:07.313Z,94605.84
2022-09-18T07:46:33.688Z,94605.92
2022-09-18T07:49:00.002Z,94595.75
2022-09-18T07:51:26.626Z,94601.23
2022-09-18T07:53:52.726Z,94593.48
2022-09-18T07:56:19.058Z,94599.00
2022-09-18T07:58:45.403Z,94590.59
2022-09-18T08:01:11.739Z,94592.90
2022-09-18T08:03:41.416Z,94598.38
2022-09-18T08:06:04.428Z,94594.86
2022-09-18T08:08:30.825Z,94596.34
2022-09-18T08:10:57.197Z,94594.23
2022-09-18T08:13:23.538Z,94587.78
2022-09-18T08:15:49.954Z,94592.94
2022-09-18T08:18:16.217Z,94585.35
2022-09-18T08:20:42.598Z,94587.78
2022-09-18T08:23:08.951Z,94581.83
2022-09-18T08:25:35.280Z,94584.25
2022-09-18T08:28:01.638Z,94581.95
2022-09-18T08:30:27.975Z,94573.93
2022-09-18T08:32:54.321Z,94575.09
2022-09-18T08:35:20.663Z,94580.11
2022-09-18T08:37:47.005Z,94579.98
2022-09-18T08:40:13.399Z,94583.70
2022-09-18T08:42:39.687Z,94589.56
2022-09-18T08:45:06.029Z,94595.86
2022-09-18T08:47:32.380Z,94600.08
2022-09-18T08:49:59.064Z,94600.16
2022-09-18T08:52:25.417Z,94599.66
2022-09-18T08:54:51.765Z,94605.52
2022-09-18T08:57:18.117Z,94614.90
2022-09-18T08:59:44.460Z,94618.63
2022-09-18T09:02:10.866Z,94609.73
2022-09-18T09:04:37.144Z,94606.72
2022-09-18T09:07:03.500Z,94606.45
2022-09-18T09:09:29.852Z,94617.52
2022-09-18T09:11:56.197Z,94619.16
2022-09-18T09:14:39.632Z,94620.38
2022-09-18T09:16:48.877Z,94623.67
2022-09-18T09:19:15.211Z,94622.70
2022-09-18T09:21:41.553Z,94627.54
2022-09-18T09:24:07.891Z,94631.19
2022-09-18T09:26:34.246Z,94626.17
2022-09-18T09:29:00.601Z,94632.28
2022-09-18T09:31:26.990Z,94633.03
2022-09-18T09:33:53.273Z,94639.28
2022-09-18T09:36:19.621Z,94641.52
2022-09-18T09:38:45.964Z,94649.53
2022-09-18T09:41:12.351Z,94652.81
2022-09-18T09:43:38.682Z,94648.86
2022-09-18T09:46:05.029Z,94661.09
2022-09-18T09:48:31.389Z,94653.13
2022-09-18T09:50:57.742Z,94663.88
2022-09-18T09:53:24.075Z,94669.51
2022-09-18T09:55:50.416Z,94673.50
2022-09-18T09:58:16.765Z,94674.59
2022-09-18T10:00:43.166Z,94673.09
2022-09-18T10:03:09.459Z,94680.09
2022-09-18T10:05:35.806Z,94677.99
2022-09-18T10:08:02.137Z,94689.13
2022-09-18T10:10:28.483Z,94694.38
2022-09-18T10:12:54.834Z,94688.66
2022-09-18T10:15:21.179Z,94684.05
2022-09-18T10:17:47.529Z,94687.96
2022-09-18T10:20:13.870Z,94682.77
2022-09-18T10:22:40.218Z,94679.48
2022-09-18T10:25:06.555Z,94691.53
2022-09-18T10:27:32.899Z,94691.30
2022-09-18T10:30:00.234Z,94695.06
2022-09-18T10:32:25.596Z,94690.02
2022-09-18T10:34:51.945Z,94692.27
2022-09-18T10:37:18.294Z,94695.98
2022-09-18T10:39:44.642Z,94700.59
2022-09-18T10:42:10.971Z,94699.81
2022-09-18T10:44:37.369Z,94701.97
2022-09-18T10:47:03.769Z,94711.95
2022-09-18T10:49:30.084Z,94704.98
2022-09-18T10:51:56.428Z,94710.15
2022-09-18T10:54:22.794Z,94707.33
2022-09-18T10:56:49.111Z,94699.82
2022-09-18T10:59:15.455Z,94706.94
2022-09-18T11:01:44.837Z,94704.02
2022-09-18T11:04:08.167Z,94716.18
2022-09-18T11:06:34.522Z,94718.64
2022-09-18T11:09:00.915Z,94724.48
2022-09-18T11:11:27.238Z,94722.64
2022-09-18T11:13:53.577Z,94727.80
2022-09-18T11:16:19.943Z,94712.31
2022-09-18T11:18:47.524Z,94704.45
2022-09-18T11:21:12.618Z,94710.16
2022-09-18T11:23:38.964Z,94706.48
2022-09-18T11:26:05.333Z,94713.30
2022-09-18T11:28:31.691Z,94710.09
2022-09-18T11:30:58.059Z,94714.62
2022-09-18T11:33:24.401Z,94705.79
2022-09-18T11:38:35.070Z,94721.27
2022-09-18T11:41:01.426Z,94711.14
2022-09-18T11:43:27.756Z,94711.33
2022-09-18T11:45:54.172Z,94721.08
2022-09-18T11:48:20.516Z,94720.30
2022-09-18T11:50:46.887Z,94721.59
2022-09-18T11:53:13.228Z,94727.45
2022-09-18T11:55:39.616Z,94724.59
2022-09-18T11:58:05.942Z,94728.19
2022-09-18T12:00:32.288Z,94731.45
2022-09-18T12:02:58.680Z,94732.62
2022-09-18T12:05:24.997Z,94730.03
2022-09-18T12:07:51.389Z,94735.86
2022-09-18T12:10:16.323Z,94740.16
2022-09-18T12:12:42.657Z,94737.77
2022-09-18T12:15:08.994Z,94739.41
2022-09-18T12:17:35.341Z,94743.95
2022-09-18T12:20:01.675Z,94740.97
2022-09-18T12:22:28.013Z,94741.17
2022-09-18T12:24:54.430Z,94751.89
2022-09-18T12:27:20.760Z,94744.02
2022-09-18T12:29:47.093Z,94751.02
2022-09-18T12:32:13.433Z,94749.92
2022-09-18T12:34:39.768Z,94756.17
2022-09-18T12:37:06.099Z,94754.91
2022-09-18T12:39:33.114Z,94760.64
2022-09-18T12:42:00.472Z,94760.57
2022-09-18T12:44:25.804Z,94772.90
2022-09-18T12:46:52.150Z,94771.52
2022-09-18T12:49:18.479Z,94762.10
2022-09-18T12:51:44.883Z,94769.11
2022-09-18T12:54:11.221Z,94771.97
2022-09-18T12:56:38.504Z,94771.19
2022-09-18T12:59:03.910Z,94771.16
2022-09-18T13:01:30.251Z,94770.69
2022-09-18T13:03:56.596Z,94765.54
2022-09-18T13:06:22.968Z,94759.76
2022-09-18T13:08:49.313Z,94757.05
2022-09-18T13:11:15.680Z,94751.83
2022-09-18T13:13:42.022Z,94750.42
2022-09-18T13:16:08.407Z,94760.19
2022-09-18T13:18:35.432Z,94750.83
2022-09-18T13:21:01.777Z,94758.92
2022-09-18T13:23:28.121Z,94759.16
2022-09-18T13:25:54.459Z,94765.95
2022-09-18T13:28:20.830Z,94761.92
2022-09-18T13:30:47.196Z,94756.76
2022-09-18T13:33:13.540Z,94758.70
2022-09-18T13:35:39.889Z,94761.72
2022-09-18T13:38:06.262Z,94766.09
2022-09-18T13:40:32.643Z,94769.17
2022-09-18T13:42:58.975Z,94761.55
2022-09-18T13:45:25.285Z,94768.55
2022-09-18T13:47:51.638Z,94773.60
2022-09-18T13:50:17.968Z,94777.16
2022-09-18T13:52:44.317Z,94774.73
2022-09-18T13:55:10.649Z,94781.52
2022-09-18T13:57:36.994Z,94781.49
2022-09-18T14:00:03.325Z,94783.41
2022-09-18T14:02:29.823Z,94787.78
2022-09-18T14:04:56.154Z,94787.22
2022-09-18T14:07:22.495Z,94791.55
2022-09-18T14:09:48.831Z,94793.72
2022-09-18T14:12:15.167Z,94796.80
2022-09-18T14:14:41.506Z,94794.67
2022-09-18T14:17:07.843Z,94802.39
2022-09-18T14:19:34.191Z,94797.98
2022-09-18T14:22:00.532Z,94801.17
2022-09-18T14:24:26.879Z,94810.06
2022-09-18T14:26:53.222Z,94804.83
2022-09-18T14:29:19.577Z,94807.72
2022-09-18T14:31:45.967Z,94806.23
2022-09-18T14:34:12.254Z,94803.47
2022-09-18T14:36:38.593Z,94799.34
2022-09-18T14:39:04.935Z,94808.70
2022-09-18T14:41:31.284Z,94806.40
2022-09-18T14:43:57.619Z,94809.52
2022-09-18T14:46:23.965Z,94814.33
2022-09-18T14:48:50.313Z,94807.86
2022-09-18T14:51:16.665Z,94805.58
2022-09-18T14:53:43.043Z,94804.73
2022-09-18T14:56:09.392Z,94807.97
2022-09-18T14:58:35.727Z,94807.91
2022-09-18T15:01:02.136Z,94800.09
2022-09-18T15:03:28.419Z,94815.52
2022-09-18T15:05:54.759Z,94809.42
2022-09-18T15:08:24.659Z,94763.30
2022-09-18T15:10:47.444Z,94805.38
2022-09-18T15:13:13.809Z,94812.22
2022-09-18T15:15:40.166Z,94813.02
2022-09-18T15:18:06.516Z,94813.44
2022-09-18T15:20:32.871Z,94813.13
2022-09-18T15:22:59.219Z,94805.06
2022-09-18T15:25:25.568Z,94820.06
2022-09-18T15:27:51.914Z,94808.75
2022-09-18T15:30:18.260Z,94817.97
2022-09-18T15:32:44.618Z,94817.53
2022-09-18T15:35:10.973Z,94823.87
2022-09-18T15:37:38.546Z,94822.23
2022-09-18T15:40:04.995Z,94826.11
2022-09-18T15:42:31.245Z,94821.68
2022-09-18T15:44:57.600Z,94822.62
2022-09-18T15:47:23.946Z,94826.72
2022-09-18T15:49:50.298Z,94831.42
2022-09-18T15:52:16.644Z,94832.21
2022-09-18T15:54:42.991Z,94837.45
2022-09-18T15:57:09.361Z,94838.12
2022-09-18T15:59:35.720Z,94837.17
2022-09-18T16:02:02.107Z,94837.64
2022-09-18T16:04:29.488Z,94839.13
2022-09-18T16:06:54.736Z,94838.19
2022-09-18T16:09:21.115Z,94841.13
2022-09-18T16:11:47.469Z,94842.27
2022-09-18T16:14:13.814Z,94840.52
2022-09-18T16:16:40.221Z,94839.66
2022-09-18T16:19:06.504Z,94846.44
2022-09-18T16:21:32.846Z,94836.38
2022-09-18T16:23:59.220Z,94850.31
2022-09-18T16:26:25.562Z,94841.14
2022-09-18T16:28:51.900Z,94839.58
2022-09-18T16:31:18.334Z,94837.19
2022-09-18T16:33:47.985Z,94843.66
2022-09-18T16:36:10.976Z,94850.94
2022-09-18T16:38:37.320Z,94850.59
2022-09-18T16:41:03.668Z,94860.34
2022-09-18T16:43:30.020Z,94857.40
2022-09-18T16:45:56.399Z,94865.31
2022-09-18T16:48:22.704Z,94869.66
2022-09-18T16:50:49.046Z,94873.66
2022-09-18T16:53:15.385Z,94875.97
2022-09-18T16:55:41.726Z,94877.88
2022-09-18T16:58:08.074Z,94883.17
2022-09-18T17:00:34.428Z,94880.86
2022-09-18T17:03:00.767Z,94882.62
2022-09-18T17:05:27.098Z,94891.67
2022-09-18T17:07:53.440Z,94889.23
2022-09-18T17:10:19.795Z,94893.12
2022-09-18T17:12:46.137Z,94900.41
2022-09-18T17:15:12.478Z,94900.98
2022-09-18T17:17:38.812Z,94905.02
2022-09-18T17:20:05.153Z,94907.41
2022-09-18T17:22:31.484Z,94913.63
2022-09-18T17:24:57.863Z,94916.56
2022-09-18T17:27:24.203Z,94917.51
2022-09-18T17:29:50.766Z,94931.41
2022-09-18T17:32:17.103Z,94926.70
2022-09-18T17:34:43.446Z,94929.91
2022-09-18T17:37:09.775Z,94933.44
2022-09-18T17:39:36.121Z,94937.16
2022-09-18T17:42:02.461Z,94942.02
2022-09-18T17:44:28.802Z,94942.59
2022-09-18T17:46:55.200Z,94949.88
2022-09-18T17:49:21.484Z,94951.17
2022-09-18T17:51:47.828Z,94959.08
2022-09-18T17:54:14.164Z,94960.22
2022-09-18T17:56:40.503Z,94962.33
2022-09-18T17:59:06.844Z,94964.45
2022-09-18T18:01:33.212Z,94964.09
2022-09-18T18:03:59.553Z,94971.50
2022-09-18T18:06:25.897Z,94972.41
2022-09-18T18:08:52.239Z,94968.27
2022-09-18T18:11:18.584Z,94979.22
2022-09-18T18:13:44.925Z,94976.95
2022-09-18T18:16:11.372Z,94978.66
2022-09-18T18:18:37.644Z,94980.98
2022-09-18T18:21:04.012Z,94982.66
2022-09-18T18:23:30.380Z,94982.27
2022-09-18T18:25:56.712Z,94989.67
2022-09-18T18:28:23.086Z,94987.36
2022-09-18T18:30:49.432Z,94986.41
2022-09-18T18:33:15.782Z,94986.21
2022-09-18T18:35:42.117Z,94990.77
2022-09-18T18:38:08.463Z,94988.44
2022-09-18T18:40:34.847Z,94986.68
2022-09-18T18:43:01.160Z,94991.70
2022-09-18T18:45:27.494Z,94990.97
2022-09-18T18:47:53.834Z,94990.29
2022-09-18T18:50:20.168Z,94988.91
2022-09-18T18:52:46.516Z,94980.22
2022-09-18T18:55:12.844Z,94981.52
2022-09-18T18:57:39.190Z,94980.80
2022-09-18T19:00:05.530Z,94987.62
2022-09-18T19:02:31.875Z,94987.53
2022-09-18T19:04:58.205Z,94986.59
2022-09-18T19:07:24.552Z,94986.23
2022-09-18T19:09:50.898Z,94981.22
2022-09-18T19:12:17.244Z,94986.97
2022-09-18T19:14:43.578Z,94986.65
2022-09-18T19:17:09.922Z,94990.05
2022-09-18T19:19:36.262Z,94985.68
2022-09-18T19:22:02.626Z,94992.08
2022-09-18T19:24:28.957Z,94988.53
2022-09-18T19:26:55.295Z,94983.36
2022-09-18T19:29:21.642Z,94990.08
2022-09-18T19:31:48.099Z,94982.39
2022-09-18T19:34:14.332Z,94983.33
2022-09-18T19:36:40.676Z,94981.56
2022-09-18T19:39:07.008Z,94982.18
2022-09-18T19:41:33.353Z,94985.09
2022-09-18T19:43:59.687Z,94986.52
2022-09-18T19:46:26.085Z,94993.45
2022-09-18T19:48:53.401Z,94989.58
2022-09-18T19:51:19.753Z,94987.47
2022-09-18T19:53:46.096Z,94991.08
2022-09-18T19:56:32.980Z,94991.22
2022-09-18T19:58:38.815Z,94986.11
2022-09-18T20:01:05.260Z,94994.18
2022-09-18T20:03:31.552Z,94997.50
2022-09-18T20:05:57.892Z,94992.01
2022-09-18T20:08:24.225Z,95000.55
2022-09-18T20:10:50.598Z,94998.11
2022-09-18T20:13:16.939Z,95006.33
2022-09-18T20:15:43.284Z,95003.39
2022-09-18T20:18:09.650Z,95007.02
2022-09-18T20:23:20.273Z,95012.55
2022-09-18T20:25:46.605Z,95011.52
2022-09-18T20:28:13.030Z,95014.20
2022-09-18T20:30:39.385Z,95017.26
2022-09-18T20:33:05.739Z,95021.95
2022-09-18T20:35:32.075Z,95021.63
2022-09-18T20:37:58.414Z,95016.94
2022-09-18T20:40:24.794Z,95021.28
2022-09-18T20:42:51.127Z,95015.64
2022-09-18T20:45:17.470Z,95023.18
2022-09-18T20:47:43.877Z,95025.05
2022-09-18T20:50:10.218Z,95025.88
2022-09-18T20:52:36.591Z,95024.37
2022-09-18T20:55:02.931Z,95032.80
2022-09-18T20:57:29.272Z,95025.66
2022-09-18T20:59:55.604Z,95018.59
2022-09-18T21:02:21.996Z,95018.50
2022-09-18T21:04:48.303Z,95019.32
2022-09-18T21:07:14.710Z,95008.17
2022-09-18T21:09:41.054Z,95012.55
2022-09-18T21:12:07.401Z,95018.29
2022-09-18T21:14:33.749Z,95024.28
2022-09-18T21:17:00.086Z,95028.61
2022-09-18T21:19:26.503Z,95030.27
2022-09-18T21:21:52.800Z,95027.47
2022-09-18T21:24:19.139Z,95021.69
2022-09-18T21:26:45.487Z,95023.09
2022-09-18T21:29:11.856Z,95024.89
2022-09-18T21:31:38.219Z,95023.59
2022-09-18T21:34:04.548Z,95017.93
2022-09-18T21:36:30.885Z,95017.25
2022-09-18T21:38:57.216Z,95021.48
2022-09-18T21:41:23.574Z,95019.83
2022-09-18T21:43:49.983Z,95006.05
2022-09-18T21:46:16.293Z,95020.91
2022-09-18T21:48:42.584Z,95017.16
2022-09-18T21:51:08.936Z,95017.98
2022-09-18T21:53:35.279Z,95006.03
2022-09-18T21:56:01.624Z,95015.08
2022-09-18T21:58:27.973Z,95011.41
2022-09-18T22:00:54.336Z,95006.36
2022-09-18T22:03:20.670Z,95013.99
2022-09-18T22:05:47.005Z,95010.70
2022-09-18T22:08:13.349Z,95017.51
2022-09-18T22:10:39.688Z,95021.03
2022-09-18T22:13:06.027Z,95022.31
2022-09-18T22:15:32.399Z,95016.83
2022-09-18T22:17:58.739Z,95020.23
2022-09-18T22:20:25.086Z,95025.52
2022-09-18T22:22:51.436Z,95014.66
2022-09-18T22:25:17.781Z,95022.93
2022-09-18T22:27:45.063Z,95021.94
2022-09-18T22:30:10.471Z,95037.24
2022-09-18T22:32:36.806Z,95027.52
2022-09-18T22:35:03.152Z,95032.22
2022-09-18T22:37:29.502Z,95034.34
2022-09-18T22:39:55.947Z,95035.62
2022-09-18T22:42:22.219Z,95036.20
2022-09-18T22:44:48.561Z,95044.30
2022-09-18T22:47:14.913Z,95038.78
2022-09-18T22:49:41.309Z,95037.64
2022-09-18T22:52:07.677Z,95029.54
2022-09-18T22:54:34.025Z,95026.95
2022-09-18T22:57:00.405Z,95030.47
2022-09-18T22:59:26.740Z,95022.73
2022-09-18T23:01:53.124Z,95031.91
2022-09-18T23:04:19.479Z,95030.26
2022-09-18T23:06:45.775Z,95032.84
2022-09-18T23:09:12.239Z,95029.80
2022-09-18T23:11:38.582Z,95041.55
2022-09-18T23:14:04.927Z,95032.98
2022-09-18T23:16:31.288Z,95036.86
2022-09-18T23:18:57.618Z,95030.52
2022-09-18T23:21:23.951Z,95026.17
2022-09-18T23:23:50.295Z,95022.44
2022-09-18T23:26:16.642Z,95015.99
2022-09-18T23:28:43.001Z,95018.22
2022-09-18T23:31:09.372Z,95019.98
2022-09-18T23:33:35.684Z,95024.20
2022-09-18T23:36:02.039Z,95022.66
2022-09-18T23:38:28.380Z,95021.38
2022-09-18T23:40:54.745Z,95016.22
2022-09-18T23:43:21.088Z,94990.99
2022-09-18T23:45:47.467Z,95011.66
2022-09-18T23:48:13.809Z,95013.77
2022-09-18T23:50:42.367Z,95009.22
2022-09-18T23:53:08.717Z,95005.35
2022-09-18T23:55:35.052Z,94997.61
2022-09-18T23:58:01.406Z,94997.25
